createdAt,value
2023-02-15T00:00:11.784Z,26.08
2023-02-15T00:02:59.121Z,25.00
2023-02-15T00:05:26.220Z,25.65
2023-02-15T00:07:53.460Z,27.45
2023-02-15T00:10:20.461Z,26.30
2023-02-15T00:12:47.670Z,26.85
2023-02-15T00:15:14.758Z,26.13
2023-02-15T00:17:42.047Z,25.17
2023-02-15T00:20:09.811Z,24.15
2023-02-15T00:22:37.184Z,25.25
2023-02-15T00:25:04.935Z,25.92
2023-02-15T00:27:32.324Z,25.42
2023-02-15T00:29:59.487Z,24.42
2023-02-15T00:32:28.445Z,26.30
2023-02-15T00:34:55.415Z,25.73
2023-02-15T00:37:22.842Z,28.02
2023-02-15T00:39:49.889Z,24.80
2023-02-15T00:42:17.175Z,24.77
2023-02-15T00:44:44.095Z,25.02
2023-02-15T00:47:11.373Z,25.42
2023-02-15T00:49:38.456Z,25.98
2023-02-15T00:52:05.691Z,25.30
2023-02-15T00:54:32.716Z,23.80
2023-02-15T00:56:59.959Z,24.90
2023-02-15T00:59:26.808Z,24.65
2023-02-15T01:01:54.029Z,24.02
2023-02-15T01:04:20.953Z,24.50
2023-02-15T01:06:48.198Z,25.17
2023-02-15T01:09:15.195Z,23.75
2023-02-15T01:11:42.392Z,23.23
2023-02-15T01:14:09.381Z,24.88
2023-02-15T01:16:36.557Z,26.25
2023-02-15T01:19:03.814Z,24.50
2023-02-15T01:21:31.190Z,25.00
2023-02-15T01:23:58.122Z,23.50
2023-02-15T01:26:25.324Z,24.58
2023-02-15T01:28:52.249Z,23.45
2023-02-15T01:31:22.045Z,23.90
2023-02-15T01:33:49.496Z,22.80
2023-02-15T01:36:18.404Z,23.45
2023-02-15T01:38:45.974Z,24.67
2023-02-15T01:41:27.325Z,23.80
2023-02-15T01:44:01.940Z,25.02
2023-02-15T01:46:41.604Z,23.55
2023-02-15T01:49:24.832Z,23.52
2023-02-15T01:51:53.907Z,26.73
2023-02-15T01:54:34.992Z,24.10
2023-02-15T01:57:09.795Z,25.20
2023-02-15T01:59:40.649Z,25.90
2023-02-15T02:02:12.975Z,23.42
2023-02-15T02:04:50.584Z,25.10
2023-02-15T02:07:23.556Z,26.55
2023-02-15T02:09:51.422Z,27.48
2023-02-15T02:12:22.845Z,24.85
2023-02-15T02:14:52.254Z,26.02
2023-02-15T02:18:19.170Z,26.08
2023-02-15T02:21:08.411Z,24.98
2023-02-15T02:23:40.547Z,24.08
2023-02-15T02:26:58.094Z,24.50
2023-02-15T02:29:55.977Z,25.13
2023-02-15T02:32:50.877Z,24.80
2023-02-15T02:35:54.252Z,25.70
2023-02-15T02:38:49.561Z,22.77
2023-02-15T02:41:42.696Z,23.20
2023-02-15T02:44:25.882Z,24.15
2023-02-15T02:47:27.804Z,25.13
2023-02-15T02:50:10.204Z,25.92
2023-02-15T02:52:41.992Z,24.88
2023-02-15T02:55:20.826Z,25.38
2023-02-15T02:58:03.189Z,25.13
2023-02-15T03:00:46.356Z,25.23
2023-02-15T03:03:30.001Z,26.50
2023-02-15T03:06:04.793Z,25.65
2023-02-15T03:11:06.446Z,26.25
2023-02-15T03:13:35.043Z,25.38
2023-02-15T03:16:24.610Z,25.00
2023-02-15T03:18:58.975Z,23.83
2023-02-15T03:21:39.531Z,25.07
2023-02-15T03:24:23.385Z,25.10
2023-02-15T03:26:54.093Z,23.67
2023-02-15T03:29:28.554Z,23.88
2023-02-15T03:32:31.179Z,24.60
2023-02-15T03:35:12.434Z,24.40
2023-02-15T03:38:10.823Z,23.33
2023-02-15T03:41:12.851Z,27.33
2023-02-15T03:44:48.121Z,27.00
2023-02-15T03:48:10.961Z,25.63
2023-02-15T03:51:01.955Z,27.55
2023-02-15T03:53:29.447Z,26.60
2023-02-15T03:55:56.945Z,27.48
2023-02-15T03:58:42.804Z,27.60
2023-02-15T04:01:47.879Z,23.98
2023-02-15T04:04:25.489Z,28.10
2023-02-15T04:06:52.712Z,29.33
2023-02-15T04:09:38.394Z,29.58
2023-02-15T04:12:05.628Z,28.65
2023-02-15T04:14:51.698Z,29.15
2023-02-15T04:17:18.734Z,27.65
2023-02-15T04:20:04.407Z,27.98
2023-02-15T04:22:49.803Z,29.33
2023-02-15T04:25:17.304Z,28.02
2023-02-15T04:27:54.046Z,26.75
2023-02-15T04:30:26.087Z,26.67
2023-02-15T04:32:57.536Z,29.05
2023-02-15T04:35:24.957Z,30.13
2023-02-15T04:37:52.116Z,29.17
2023-02-15T04:40:19.880Z,29.00
2023-02-15T04:42:50.253Z,28.25
2023-02-15T04:45:18.612Z,28.05
2023-02-15T04:47:45.781Z,29.58
2023-02-15T04:50:13.278Z,28.95
2023-02-15T04:52:40.373Z,28.55
2023-02-15T04:55:08.472Z,26.83
2023-02-15T04:57:35.606Z,26.25
2023-02-15T05:00:03.159Z,28.15
2023-02-15T05:02:33.769Z,27.25
2023-02-15T05:05:14.085Z,27.40
2023-02-15T05:07:41.075Z,25.73
2023-02-15T05:10:09.329Z,24.55
2023-02-15T05:12:36.855Z,24.63
2023-02-15T05:15:04.757Z,25.73
2023-02-15T05:17:31.619Z,27.23
2023-02-15T05:19:58.790Z,26.48
2023-02-15T05:22:26.170Z,25.83
2023-02-15T05:25:12.026Z,27.13
2023-02-15T05:27:57.679Z,26.23
2023-02-15T05:30:25.048Z,26.52
2023-02-15T05:32:52.236Z,27.83
2023-02-15T05:35:19.853Z,28.95
2023-02-15T05:37:46.933Z,28.40
2023-02-15T05:40:14.261Z,28.85
2023-02-15T05:42:41.322Z,26.13
2023-02-15T05:45:08.756Z,25.77
2023-02-15T05:47:35.681Z,26.95
2023-02-15T05:50:02.956Z,26.58
2023-02-15T05:52:29.952Z,24.65
2023-02-15T05:54:57.259Z,26.40
2023-02-15T05:57:24.206Z,26.85
2023-02-15T05:59:51.774Z,28.38
2023-02-15T06:02:19.169Z,28.05
2023-02-15T06:04:46.494Z,25.83
2023-02-15T06:07:13.625Z,25.35
2023-02-15T06:09:40.877Z,25.40
2023-02-15T06:12:08.007Z,22.50
2023-02-15T06:14:35.236Z,24.40
2023-02-15T06:17:02.374Z,24.52
2023-02-15T06:19:29.590Z,23.27
2023-02-15T06:21:56.640Z,22.67
2023-02-15T06:24:24.093Z,22.95
2023-02-15T06:26:51.089Z,22.05
2023-02-15T06:29:18.305Z,23.50
2023-02-15T06:31:55.470Z,23.55
2023-02-15T06:34:22.848Z,20.58
2023-02-15T06:36:50.179Z,22.10
2023-02-15T06:39:17.770Z,22.38
2023-02-15T06:41:44.694Z,24.30
2023-02-15T06:44:11.953Z,23.80
2023-02-15T06:46:38.869Z,24.33
2023-02-15T06:49:06.393Z,22.02
2023-02-15T06:51:35.205Z,25.38
2023-02-15T06:54:02.491Z,26.08
2023-02-15T06:56:29.440Z,23.77
2023-02-15T06:58:56.849Z,22.50
2023-02-15T07:01:24.136Z,21.52
2023-02-15T07:03:51.589Z,23.65
2023-02-15T07:06:18.729Z,23.25
2023-02-15T07:08:46.043Z,22.40
2023-02-15T07:11:32.140Z,23.23
2023-02-15T07:13:59.550Z,24.58
2023-02-15T07:16:27.096Z,22.08
2023-02-15T07:18:54.611Z,21.77
2023-02-15T07:21:21.870Z,23.02
2023-02-15T07:23:50.017Z,22.90
2023-02-15T07:26:17.028Z,23.13
2023-02-15T07:28:44.721Z,22.80
2023-02-15T07:31:11.781Z,23.17
2023-02-15T07:33:39.006Z,21.10
2023-02-15T07:36:07.019Z,22.08
2023-02-15T07:38:39.345Z,23.30
2023-02-15T07:41:15.647Z,21.83
2023-02-15T07:43:46.069Z,21.27
2023-02-15T07:46:17.769Z,21.02
2023-02-15T07:48:45.827Z,21.13
2023-02-15T07:51:15.490Z,22.50
2023-02-15T07:53:43.660Z,20.00
2023-02-15T07:56:13.676Z,21.33
2023-02-15T07:58:52.958Z,21.08
2023-02-15T08:01:32.245Z,22.92
2023-02-15T08:04:00.210Z,23.48
2023-02-15T08:06:30.731Z,23.45
2023-02-15T08:08:58.268Z,20.33
2023-02-15T08:11:38.803Z,21.38
2023-02-15T08:14:13.906Z,19.50
2023-02-15T08:19:28.688Z,20.75
2023-02-15T08:22:03.049Z,20.98
2023-02-15T08:24:33.877Z,21.55
2023-02-15T08:27:06.060Z,20.00
2023-02-15T08:29:35.756Z,20.23
2023-02-15T08:32:07.432Z,18.33
2023-02-15T08:34:40.590Z,20.10
2023-02-15T08:37:08.241Z,20.63
2023-02-15T08:39:35.958Z,20.30
2023-02-15T08:42:03.175Z,20.40
2023-02-15T08:44:30.841Z,21.08
2023-02-15T08:47:03.763Z,29.33
2023-02-15T08:49:31.310Z,23.42
2023-02-15T08:51:58.643Z,22.75
2023-02-15T08:54:26.111Z,22.45
2023-02-15T08:56:53.155Z,20.10
2023-02-15T08:59:24.249Z,24.10
2023-02-15T09:01:53.303Z,19.92
2023-02-15T09:04:23.639Z,22.70
2023-02-15T09:06:51.734Z,22.85
2023-02-15T09:09:20.447Z,22.35
2023-02-15T09:11:55.836Z,23.92
2023-02-15T09:14:28.031Z,21.80
2023-02-15T09:16:56.275Z,21.63
2023-02-15T09:19:25.503Z,20.60
2023-02-15T09:21:52.722Z,23.17
2023-02-15T09:24:20.319Z,19.98
2023-02-15T09:26:49.685Z,21.77
2023-02-15T09:29:18.862Z,19.05
2023-02-15T09:31:52.004Z,23.50
2023-02-15T09:34:22.542Z,22.38
2023-02-15T09:36:51.330Z,23.60
2023-02-15T09:39:25.829Z,21.42
2023-02-15T09:42:17.310Z,21.65
2023-02-15T09:45:22.827Z,20.08
2023-02-15T09:48:28.673Z,20.87
2023-02-15T09:54:13.416Z,17.40
2023-02-15T09:56:49.757Z,18.17
2023-02-15T09:59:55.178Z,19.00
2023-02-15T10:02:53.866Z,17.45
2023-02-15T10:06:05.742Z,20.67
2023-02-15T10:09:03.862Z,21.33
2023-02-15T10:11:56.122Z,21.55
2023-02-15T10:15:01.887Z,22.20
2023-02-15T10:17:55.339Z,20.55
2023-02-15T10:21:23.220Z,19.73
2023-02-15T10:24:21.769Z,20.23
2023-02-15T10:26:50.257Z,22.02
2023-02-15T10:29:38.944Z,22.45
2023-02-15T10:32:25.934Z,21.63
2023-02-15T10:35:04.229Z,20.48
2023-02-15T10:37:48.901Z,21.23
2023-02-15T10:40:57.559Z,21.20
2023-02-15T10:44:07.026Z,24.50
2023-02-15T10:47:12.613Z,21.33
2023-02-15T10:50:31.481Z,20.73
2023-02-15T10:53:32.173Z,20.35
2023-02-15T10:56:19.697Z,21.85
2023-02-15T10:59:25.246Z,20.80
2023-02-15T11:03:22.013Z,23.00
2023-02-15T11:06:11.367Z,22.80
2023-02-15T11:08:47.826Z,20.33
2023-02-15T11:11:30.694Z,20.40
2023-02-15T11:14:05.038Z,23.05
2023-02-15T11:16:42.780Z,21.13
2023-02-15T11:19:35.578Z,24.08
2023-02-15T11:22:07.757Z,23.08
2023-02-15T11:24:44.511Z,23.27
2023-02-15T11:27:22.135Z,21.75
2023-02-15T11:29:59.252Z,22.55
2023-02-15T11:32:41.240Z,20.98
2023-02-15T11:35:11.203Z,22.90
2023-02-15T11:37:47.617Z,22.50
2023-02-15T11:40:52.963Z,21.08
2023-02-15T11:43:54.321Z,21.20
2023-02-15T11:46:22.736Z,25.60
2023-02-15T11:48:50.275Z,22.10
2023-02-15T11:51:23.850Z,21.92
2023-02-15T11:53:53.243Z,22.50
2023-02-15T11:56:25.608Z,22.10
2023-02-15T11:59:04.766Z,20.95
2023-02-15T12:01:43.493Z,19.33
2023-02-15T12:04:35.780Z,19.05
2023-02-15T12:07:26.657Z,20.75
2023-02-15T12:10:18.184Z,19.35
2023-02-15T12:12:45.628Z,20.30
2023-02-15T12:15:15.136Z,22.40
2023-02-15T12:17:56.138Z,19.67
2023-02-15T12:20:33.545Z,20.20
2023-02-15T12:23:12.831Z,21.65
2023-02-15T12:26:00.360Z,18.92
2023-02-15T12:28:45.542Z,17.33
2023-02-15T12:31:28.840Z,18.90
2023-02-15T12:34:01.071Z,19.10
2023-02-15T12:36:48.023Z,18.83
2023-02-15T12:39:20.625Z,18.10
2023-02-15T12:42:01.644Z,18.50
2023-02-15T12:44:38.223Z,19.42
2023-02-15T12:47:17.054Z,19.80
2023-02-15T12:49:48.066Z,16.60
2023-02-15T12:52:21.418Z,18.20
2023-02-15T12:54:49.633Z,17.65
2023-02-15T12:57:33.811Z,18.92
2023-02-15T13:00:32.686Z,19.20
2023-02-15T13:03:01.572Z,18.13
2023-02-15T13:05:47.538Z,19.10
2023-02-15T13:08:32.164Z,18.67
2023-02-15T13:11:12.132Z,17.95
2023-02-15T13:13:59.952Z,17.65
2023-02-15T13:16:41.132Z,19.65
2023-02-15T13:19:43.448Z,19.65
2023-02-15T13:22:44.620Z,18.30
2023-02-15T13:25:21.057Z,19.40
2023-02-15T13:27:56.876Z,19.00
2023-02-15T13:30:33.322Z,17.75
2023-02-15T13:33:10.708Z,17.27
2023-02-15T13:36:27.024Z,19.00
2023-02-15T13:39:32.709Z,17.30
2023-02-15T13:42:24.296Z,18.13
2023-02-15T13:45:31.799Z,19.10
2023-02-15T13:48:55.946Z,17.98
2023-02-15T13:51:28.141Z,19.23
2023-02-15T13:54:27.495Z,19.98
2023-02-15T13:57:19.514Z,22.83
2023-02-15T14:00:12.627Z,19.88
2023-02-15T14:02:40.148Z,17.90
2023-02-15T14:05:39.669Z,17.67
2023-02-15T14:08:38.850Z,17.17
2023-02-15T14:11:26.279Z,18.63
2023-02-15T14:14:06.750Z,18.20
2023-02-15T14:17:21.797Z,16.90
2023-02-15T14:19:58.554Z,19.00
2023-02-15T14:23:08.826Z,16.67
2023-02-15T14:25:59.101Z,20.92
2023-02-15T14:28:38.616Z,17.40
2023-02-15T14:31:12.543Z,19.05
2023-02-15T14:33:48.468Z,18.40
2023-02-15T14:36:20.736Z,20.70
2023-02-15T14:38:53.612Z,18.88
2023-02-15T14:41:44.945Z,19.45
2023-02-15T14:44:21.308Z,18.90
2023-02-15T14:47:11.586Z,19.25
2023-02-15T14:49:41.134Z,18.70
2023-02-15T14:52:12.720Z,16.65
2023-02-15T14:54:39.689Z,16.83
2023-02-15T14:57:09.327Z,18.10
2023-02-15T14:59:59.407Z,17.67
2023-02-15T15:03:02.625Z,19.67
2023-02-15T15:05:50.115Z,18.58
2023-02-15T15:08:42.261Z,18.48
2023-02-15T15:11:42.872Z,18.65
2023-02-15T15:14:35.114Z,18.48
2023-02-15T15:17:05.528Z,19.20
2023-02-15T15:19:51.786Z,19.73
2023-02-15T15:22:29.933Z,19.52
2023-02-15T15:25:46.788Z,18.20
2023-02-15T15:31:28.214Z,19.27
2023-02-15T15:34:33.582Z,19.13
2023-02-15T15:40:40.594Z,19.60
2023-02-15T15:43:39.511Z,20.23
2023-02-15T15:46:48.566Z,20.75
2023-02-15T15:49:25.747Z,22.33
2023-02-15T15:51:54.648Z,20.95
2023-02-15T15:54:27.153Z,20.35
2023-02-15T15:57:03.265Z,20.70
2023-02-15T15:59:35.727Z,22.92
2023-02-15T16:02:17.025Z,22.80
2023-02-15T16:04:47.217Z,22.35
2023-02-15T16:07:27.567Z,22.70
2023-02-15T16:10:28.061Z,21.88
2023-02-15T16:12:56.691Z,21.38
2023-02-15T16:15:37.250Z,21.67
2023-02-15T16:18:06.158Z,22.40
2023-02-15T16:20:37.983Z,25.73
2023-02-15T16:23:35.987Z,31.95
2023-02-15T16:26:22.067Z,34.85
2023-02-15T16:31:23.537Z,32.92
2023-02-15T16:33:56.433Z,35.08
2023-02-15T16:36:29.839Z,36.15
2023-02-15T16:38:56.858Z,34.95
2023-02-15T16:41:30.600Z,35.90
2023-02-15T16:44:05.607Z,36.30
2023-02-15T16:46:41.405Z,37.63
2023-02-15T16:49:29.334Z,30.85
2023-02-15T16:52:07.046Z,36.60
2023-02-15T16:54:36.769Z,36.65
2023-02-15T16:57:04.389Z,36.83
2023-02-15T16:59:48.240Z,34.42
2023-02-15T17:02:43.464Z,31.42
2023-02-15T17:05:13.180Z,34.95
2023-02-15T17:08:16.494Z,37.47
2023-02-15T17:11:07.648Z,34.63
2023-02-15T17:14:09.748Z,31.75
2023-02-15T17:16:50.029Z,36.97
2023-02-15T17:19:22.981Z,34.38
2023-02-15T17:21:58.136Z,34.60
2023-02-15T17:24:46.254Z,33.95
2023-02-15T17:27:23.677Z,34.30
2023-02-15T17:30:13.686Z,37.15
2023-02-15T17:32:56.754Z,32.80
2023-02-15T17:35:28.950Z,32.92
2023-02-15T17:38:19.197Z,34.13
2023-02-15T17:40:46.916Z,39.53
2023-02-15T17:43:14.224Z,33.80
2023-02-15T17:45:50.932Z,34.38
2023-02-15T17:48:35.582Z,34.92
2023-02-15T17:51:07.575Z,34.17
2023-02-15T17:53:35.231Z,33.95
2023-02-15T17:56:10.537Z,36.55
2023-02-15T18:01:34.362Z,34.40
2023-02-15T18:04:20.465Z,34.72
2023-02-15T18:07:07.124Z,33.35
2023-02-15T18:09:52.934Z,37.35
2023-02-15T18:12:27.992Z,36.25
2023-02-15T18:14:57.230Z,35.13
2023-02-15T18:17:34.059Z,37.25
2023-02-15T18:20:08.242Z,39.38
2023-02-15T18:22:36.757Z,34.45
2023-02-15T18:25:07.543Z,39.28
2023-02-15T18:27:36.859Z,38.97
2023-02-15T18:30:04.563Z,38.05
2023-02-15T18:32:36.799Z,38.92
2023-02-15T18:35:05.397Z,38.83
2023-02-15T18:37:34.758Z,38.08
2023-02-15T18:40:04.353Z,36.38
2023-02-15T18:42:35.518Z,38.70
2023-02-15T18:45:22.171Z,39.08
2023-02-15T18:47:50.176Z,38.60
2023-02-15T18:50:24.131Z,38.83
2023-02-15T18:52:52.562Z,39.33
2023-02-15T18:55:24.224Z,39.60
2023-02-15T18:57:55.599Z,39.58
2023-02-15T19:00:30.175Z,37.78
2023-02-15T19:02:59.113Z,38.53
2023-02-15T19:05:29.635Z,40.35
2023-02-15T19:07:59.730Z,38.42
2023-02-15T19:10:30.584Z,38.42
2023-02-15T19:13:00.357Z,42.97
2023-02-15T19:15:30.930Z,40.80
2023-02-15T19:17:58.936Z,37.38
2023-02-15T19:20:33.566Z,40.97
2023-02-15T19:25:34.414Z,38.05
2023-02-15T19:28:12.530Z,37.00
2023-02-15T19:30:39.748Z,39.97
2023-02-15T19:33:14.133Z,41.80
2023-02-15T19:35:41.684Z,39.03
2023-02-15T19:38:19.384Z,38.28
2023-02-15T19:40:47.116Z,37.05
2023-02-15T19:43:28.809Z,37.05
2023-02-15T19:45:56.646Z,35.47
2023-02-15T19:48:24.930Z,37.45
2023-02-15T19:50:53.532Z,39.50
2023-02-15T19:53:28.504Z,39.13
2023-02-15T19:55:55.788Z,37.92
2023-02-15T19:58:23.834Z,36.78
2023-02-15T20:00:52.489Z,36.78
2023-02-15T20:03:20.736Z,37.90
2023-02-15T20:05:48.178Z,39.33
2023-02-15T20:08:23.018Z,38.40
2023-02-15T20:10:50.466Z,39.83
2023-02-15T20:13:20.726Z,41.20
2023-02-15T20:15:49.664Z,41.15
2023-02-15T20:18:19.762Z,44.60
2023-02-15T20:20:54.818Z,42.22
2023-02-15T20:23:35.393Z,40.90
2023-02-15T20:26:18.642Z,37.60
2023-02-15T20:28:47.110Z,39.58
2023-02-15T20:31:20.627Z,40.83
2023-02-15T20:33:49.715Z,40.10
2023-02-15T20:36:22.534Z,41.85
2023-02-15T20:38:50.695Z,40.28
2023-02-15T20:41:37.293Z,41.17
2023-02-15T20:44:22.393Z,41.28
2023-02-15T20:46:53.851Z,39.70
2023-02-15T20:49:24.369Z,41.95
2023-02-15T20:51:53.692Z,41.40
2023-02-15T20:54:29.604Z,39.20
2023-02-15T20:56:57.333Z,47.55
2023-02-15T20:59:32.161Z,42.70
2023-02-15T21:02:19.156Z,44.50
2023-02-15T21:04:47.385Z,39.67
2023-02-15T21:07:21.234Z,38.92
2023-02-15T21:09:49.716Z,40.75
2023-02-15T21:12:19.884Z,42.08
2023-02-15T21:14:47.481Z,41.17
2023-02-15T21:17:16.677Z,42.35
2023-02-15T21:19:44.773Z,43.17
2023-02-15T21:22:16.717Z,41.80
2023-02-15T21:24:55.103Z,42.75
2023-02-15T21:27:22.379Z,44.00
2023-02-15T21:29:50.151Z,41.50
2023-02-15T21:32:18.863Z,41.33
2023-02-15T21:34:47.313Z,42.08
2023-02-15T21:37:32.758Z,44.33
2023-02-15T21:40:00.438Z,42.55
2023-02-15T21:42:47.460Z,41.70
2023-02-15T21:45:36.422Z,40.55
2023-02-15T21:48:04.178Z,42.20
2023-02-15T21:50:50.582Z,40.65
2023-02-15T21:53:30.643Z,41.25
2023-02-15T21:56:02.173Z,42.22
2023-02-15T21:58:33.792Z,39.17
2023-02-15T22:01:03.107Z,39.97
2023-02-15T22:03:34.938Z,40.95
2023-02-15T22:06:03.804Z,37.15
2023-02-15T22:08:35.881Z,35.97
2023-02-15T22:11:03.499Z,38.08
2023-02-15T22:13:34.140Z,39.90
2023-02-15T22:16:03.295Z,37.03
2023-02-15T22:18:34.310Z,35.45
2023-02-15T22:21:04.428Z,35.33
2023-02-15T22:23:31.683Z,39.58
2023-02-15T22:26:06.069Z,36.40
2023-02-15T22:28:43.298Z,35.70
2023-02-15T22:31:18.860Z,37.58
2023-02-15T22:33:46.468Z,37.80
2023-02-15T22:36:32.068Z,35.90
2023-02-15T22:38:59.219Z,36.80
2023-02-15T22:41:31.417Z,35.85
2023-02-15T22:43:58.627Z,38.97
2023-02-15T22:46:26.852Z,39.40
2023-02-15T22:48:53.975Z,38.97
2023-02-15T22:51:24.343Z,39.28
2023-02-15T22:53:53.305Z,41.45
2023-02-15T22:56:32.397Z,39.03
2023-02-15T22:59:09.054Z,41.17
2023-02-15T23:01:38.609Z,39.72
2023-02-15T23:04:05.997Z,38.83
2023-02-15T23:06:34.535Z,41.55
2023-02-15T23:09:01.882Z,38.70
2023-02-15T23:11:29.522Z,37.60
2023-02-15T23:13:56.689Z,35.78
2023-02-15T23:16:23.940Z,36.10
2023-02-15T23:18:51.246Z,34.20
2023-02-15T23:21:22.770Z,35.42
2023-02-15T23:23:55.855Z,34.65
2023-02-15T23:26:31.686Z,34.70
2023-02-15T23:29:01.700Z,34.55
2023-02-15T23:31:33.393Z,34.05
2023-02-15T23:34:07.701Z,36.13
2023-02-15T23:36:39.488Z,31.73
2023-02-15T23:39:39.600Z,32.90
2023-02-15T23:42:14.542Z,34.90
2023-02-15T23:44:45.063Z,35.60
2023-02-15T23:47:53.854Z,36.45
2023-02-15T23:50:30.264Z,32.75
2023-02-15T23:52:58.631Z,32.00
2023-02-15T23:55:36.128Z,33.92
2023-02-15T23:58:07.227Z,34.20
